Time;durP1;ratioP1;P1;durP2;ratioP2;P2;SDS_P1;SDS_P2;PMS_P1;PMS_P2;Temp;Humidity;BMP_temperature;BMP_pressure;BME280_temperature;BME280_humidity;BME280_pressure;Samples;Min_cycle;Max_cycle;Signal;HPM_P1;HPM_P2
2021/01/22 00:02:14;;;;;;;0.25;0.25;;;11.00;99.90;;;;;;1896666;76;21147;-71
2021/01/22 00:04:40;;;;;;;0.10;0.10;;;11.00;99.90;;;;;;1896420;76;21049;-73
2021/01/22 00:07:06;;;;;;;1.65;0.20;;;10.90;99.90;;;;;;1896571;76;21076;-73
2021/01/22 00:09:32;;;;;;;0.47;0.30;;;10.80;99.90;;;;;;1896313;76;21165;-74
2021/01/22 00:11:58;;;;;;;1.80;0.33;;;10.80;99.90;;;;;;1896578;76;21139;-74
2021/01/22 00:14:24;;;;;;;0.53;0.40;;;10.90;99.90;;;;;;1896380;76;21076;-73
2021/01/22 00:16:50;;;;;;;0.62;0.20;;;11.00;99.90;;;;;;1896573;76;21080;-73
2021/01/22 00:19:16;;;;;;;0.20;0.20;;;11.00;99.90;;;;;;1896492;76;21471;-73
2021/01/22 00:21:43;;;;;;;0.28;0.28;;;10.80;99.90;;;;;;1896577;76;21547;-73
2021/01/22 00:24:09;;;;;;;0.28;0.28;;;11.00;99.90;;;;;;1896474;76;21461;-73
2021/01/22 00:26:35;;;;;;;0.30;0.30;;;11.00;99.90;;;;;;1896504;76;21489;-74
2021/01/22 00:29:01;;;;;;;0.80;0.42;;;11.00;99.90;;;;;;1896422;76;21504;-74
2021/01/22 00:31:27;;;;;;;0.28;0.28;;;11.00;99.90;;;;;;1896442;76;21138;-73
2021/01/22 00:33:53;;;;;;;0.30;0.30;;;11.10;99.90;;;;;;1896464;76;21077;-74
2021/01/22 00:36:19;;;;;;;0.40;0.40;;;11.10;99.90;;;;;;1896454;76;21134;-74
2021/01/22 00:38:45;;;;;;;0.70;0.57;;;11.00;99.90;;;;;;1896438;76;21143;-73
2021/01/22 00:41:12;;;;;;;0.20;0.20;;;10.80;99.90;;;;;;1896476;76;21065;-74
2021/01/22 00:43:38;;;;;;;0.30;0.30;;;10.80;99.90;;;;;;1896480;76;21139;-73
2021/01/22 00:46:04;;;;;;;0.30;0.30;;;10.70;99.90;;;;;;1896590;76;21069;-73
2021/01/22 00:48:30;;;;;;;0.25;0.20;;;10.70;99.90;;;;;;1896569;76;21146;-74
2021/01/22 00:50:56;;;;;;;0.30;0.30;;;10.60;99.90;;;;;;1896541;76;21146;-74
2021/01/22 00:53:22;;;;;;;0.70;0.30;;;10.60;99.90;;;;;;1896539;76;21139;-73
2021/01/22 00:55:49;;;;;;;0.35;0.30;;;10.50;99.90;;;;;;1896477;76;21493;-73
2021/01/22 00:58:15;;;;;;;0.20;0.20;;;10.50;99.90;;;;;;1896579;76;21466;-73
2021/01/22 01:00:41;;;;;;;0.20;0.20;;;10.50;99.90;;;;;;1896447;76;21457;-73
2021/01/22 01:03:07;;;;;;;1.65;0.65;;;10.50;99.90;;;;;;1896556;76;21493;-73
2021/01/22 01:05:33;;;;;;;0.55;0.20;;;10.40;99.90;;;;;;1896433;76;21600;-73
2021/01/22 01:07:59;;;;;;;0.35;0.20;;;10.40;99.90;;;;;;1896530;76;21042;-73
2021/01/22 01:10:25;;;;;;;0.37;0.35;;;10.50;99.90;;;;;;1894731;76;21088;-74
2021/01/22 01:12:52;;;;;;;1.47;0.20;;;10.50;99.90;;;;;;1895135;76;21139;-74
2021/01/22 01:15:18;;;;;;;1.70;0.40;;;10.40;99.90;;;;;;1898150;75;21085;-74
2021/01/22 01:17:44;;;;;;;0.30;0.30;;;10.30;99.90;;;;;;1896382;76;21065;-73
2021/01/22 01:20:10;;;;;;;0.20;0.20;;;10.40;99.90;;;;;;1901346;75;21115;-73
2021/01/22 01:22:36;;;;;;;1.20;0.20;;;10.40;99.90;;;;;;1895995;76;21147;-74
2021/01/22 01:25:03;;;;;;;0.62;0.35;;;10.40;99.90;;;;;;1896451;76;21206;-73
2021/01/22 01:27:29;;;;;;;0.35;0.20;;;10.30;99.90;;;;;;1894569;76;21073;-73
2021/01/22 01:29:55;;;;;;;0.20;0.20;;;10.40;99.90;;;;;;1896810;75;21437;-73
2021/01/22 01:32:21;;;;;;;0.25;0.25;;;10.30;99.90;;;;;;1901152;75;21545;-72
2021/01/22 01:34:47;;;;;;;0.75;0.15;;;10.30;99.90;;;;;;1909951;74;21488;-72
2021/01/22 01:37:13;;;;;;;2.98;0.30;;;10.40;99.90;;;;;;1901712;74;21563;-72
2021/01/22 01:39:39;;;;;;;0.20;0.20;;;10.30;99.90;;;;;;1894558;76;21569;-72
2021/01/22 01:42:05;;;;;;;0.20;0.20;;;10.30;99.90;;;;;;1895501;76;21073;-72
2021/01/22 01:44:32;;;;;;;1.95;0.20;;;10.30;99.90;;;;;;1896461;76;21155;-72
2021/01/22 01:46:58;;;;;;;0.30;0.30;;;10.40;99.90;;;;;;1896456;76;21119;-72
2021/01/22 01:49:24;;;;;;;0.35;0.10;;;10.60;99.90;;;;;;1896428;76;21054;-72
2021/01/22 01:51:50;;;;;;;0.70;0.30;;;10.60;99.90;;;;;;1896434;76;21154;-72
2021/01/22 01:54:16;;;;;;;0.28;0.10;;;10.50;99.90;;;;;;1896664;76;21121;-72
2021/01/22 01:56:42;;;;;;;0.15;0.10;;;10.60;99.90;;;;;;1896923;76;21078;-72
2021/01/22 01:59:08;;;;;;;0.20;0.20;;;10.50;99.90;;;;;;1898419;76;21018;-72
2021/01/22 02:01:34;;;;;;;0.15;0.15;;;10.40;99.90;;;;;;1896666;76;21094;-71
2021/01/22 02:04:01;;;;;;;0.20;0.20;;;10.30;99.90;;;;;;1896573;76;21077;-72
2021/01/22 02:06:27;;;;;;;0.20;0.20;;;10.40;99.90;;;;;;1896646;76;21143;-72
2021/01/22 02:08:53;;;;;;;0.20;0.20;;;10.50;99.90;;;;;;1896576;76;21124;-72
2021/01/22 02:11:19;;;;;;;0.45;0.20;;;10.50;99.90;;;;;;1896465;76;21045;-72
2021/01/22 02:13:45;;;;;;;0.25;0.25;;;10.40;99.90;;;;;;1896443;76;21073;-71
2021/01/22 02:16:11;;;;;;;0.20;0.20;;;10.50;99.90;;;;;;1896450;76;21082;-71
2021/01/22 02:18:37;;;;;;;0.20;0.20;;;10.50;99.90;;;;;;1896442;76;21072;-72
2021/01/22 02:21:03;;;;;;;0.13;0.13;;;10.50;99.90;;;;;;1896373;76;21124;-71
2021/01/22 02:23:29;;;;;;;0.20;0.20;;;10.60;99.90;;;;;;1896405;76;21162;-71
2021/01/22 02:25:56;;;;;;;0.20;0.20;;;10.60;99.90;;;;;;1896521;76;21469;-71
2021/01/22 02:28:22;;;;;;;1.40;0.33;;;10.60;99.90;;;;;;1896499;76;21594;-71
2021/01/22 02:30:48;;;;;;;0.25;0.25;;;10.60;99.90;;;;;;1896236;76;21578;-71
2021/01/22 02:33:14;;;;;;;0.30;0.20;;;10.50;99.90;;;;;;1896354;76;21505;-72
2021/01/22 02:35:40;;;;;;;5.53;0.35;;;10.60;99.90;;;;;;1896396;76;21497;-72
2021/01/22 02:38:06;;;;;;;0.90;0.40;;;10.60;99.90;;;;;;1896395;76;21554;-71
2021/01/22 02:40:32;;;;;;;3.10;0.20;;;10.60;99.90;;;;;;1896366;76;21077;-72
2021/01/22 02:42:58;;;;;;;1.55;0.25;;;10.60;99.90;;;;;;1896405;76;21033;-74
2021/01/22 02:45:25;;;;;;;0.20;0.20;;;10.60;99.90;;;;;;1896439;76;21053;-71
2021/01/22 02:47:51;;;;;;;3.22;0.30;;;10.60;99.90;;;;;;1896448;76;21073;-71
2021/01/22 02:50:17;;;;;;;0.53;0.33;;;10.60;99.90;;;;;;1896482;76;21158;-71
2021/01/22 02:52:43;;;;;;;0.72;0.40;;;10.70;99.90;;;;;;1896318;76;21187;-73
2021/01/22 02:55:09;;;;;;;0.30;0.20;;;10.70;99.90;;;;;;1896515;76;21049;-73
2021/01/22 02:57:35;;;;;;;1.12;0.75;;;10.70;99.90;;;;;;1896319;76;21143;-73
2021/01/22 03:00:02;;;;;;;0.35;0.30;;;10.60;99.90;;;;;;1896418;76;21135;-73
2021/01/22 03:02:28;;;;;;;5.30;0.57;;;10.60;99.90;;;;;;1896284;75;21582;-73
2021/01/22 03:04:54;;;;;;;1.15;0.30;;;10.60;99.90;;;;;;1896515;75;21073;-73
2021/01/22 03:07:20;;;;;;;0.20;0.20;;;10.50;99.90;;;;;;1896277;76;21074;-73
2021/01/22 03:09:46;;;;;;;0.80;0.37;;;10.60;99.90;;;;;;1896487;76;21066;-73
2021/01/22 03:12:13;;;;;;;0.50;0.40;;;10.60;99.90;;;;;;1896545;76;21182;-73
2021/01/22 03:14:39;;;;;;;0.75;0.30;;;10.40;99.90;;;;;;1896608;76;21073;-73
2021/01/22 03:17:05;;;;;;;0.60;0.40;;;10.30;99.90;;;;;;1896850;76;21077;-73
2021/01/22 03:19:31;;;;;;;0.40;0.33;;;10.30;99.90;;;;;;1896924;76;21098;-73
2021/01/22 03:21:57;;;;;;;2.22;0.60;;;10.20;99.90;;;;;;1896807;76;21066;-72
2021/01/22 03:24:23;;;;;;;3.12;0.70;;;10.40;99.90;;;;;;1896685;76;21124;-73
2021/01/22 03:26:49;;;;;;;0.53;0.40;;;10.40;99.90;;;;;;1896706;76;21106;-73
2021/01/22 03:29:15;;;;;;;0.60;0.40;;;10.40;99.90;;;;;;1896646;76;21102;-73
2021/01/22 03:31:42;;;;;;;0.20;0.20;;;10.20;99.90;;;;;;1896693;76;21102;-73
2021/01/22 03:34:08;;;;;;;1.95;0.50;;;10.20;99.90;;;;;;1896667;76;21216;-73
2021/01/22 03:36:34;;;;;;;1.27;0.50;;;10.30;99.90;;;;;;1903272;74;21151;-72
2021/01/22 03:39:00;;;;;;;1.65;0.37;;;10.30;99.90;;;;;;1898114;76;21038;-72
2021/01/22 03:41:26;;;;;;;2.65;0.55;;;10.20;99.90;;;;;;1896892;75;21547;-72
2021/01/22 03:43:53;;;;;;;4.60;0.40;;;10.10;99.90;;;;;;1896514;76;21587;-72
2021/01/22 03:46:19;;;;;;;4.97;0.40;;;10.20;99.90;;;;;;1895950;76;21077;-72
2021/01/22 03:48:46;;;;;;;0.85;0.62;;;10.30;99.90;;;;;;1894714;76;21082;-72
2021/01/22 03:51:12;;;;;;;0.82;0.35;;;10.40;99.90;;;;;;1891324;75;21485;-72
2021/01/22 03:53:39;;;;;;;0.78;0.40;;;10.20;99.90;;;;;;1896633;76;21501;-72
2021/01/22 03:56:05;;;;;;;1.75;0.50;;;10.20;99.90;;;;;;1896653;76;21142;-72
2021/01/22 03:58:31;;;;;;;4.20;0.68;;;10.10;99.90;;;;;;1896598;76;21077;-73
2021/01/22 04:00:57;;;;;;;4.45;0.57;;;10.10;99.90;;;;;;1896685;75;21517;-73
2021/01/22 04:03:24;;;;;;;1.35;0.30;;;10.00;99.90;;;;;;1896778;76;21577;-73
2021/01/22 04:05:50;;;;;;;0.28;0.20;;;10.10;99.90;;;;;;1896546;76;21143;-72
2021/01/22 04:08:16;;;;;;;6.75;0.28;;;10.20;99.90;;;;;;1896683;76;21147;-73
2021/01/22 04:10:42;;;;;;;0.50;0.50;;;10.10;99.90;;;;;;1896624;76;21154;-72
2021/01/22 04:13:08;;;;;;;2.70;0.65;;;10.20;99.90;;;;;;1896647;76;21069;-73
2021/01/22 04:15:35;;;;;;;1.82;0.62;;;10.20;99.90;;;;;;1896527;76;21018;-73
2021/01/22 04:18:01;;;;;;;1.70;0.40;;;10.30;99.90;;;;;;1896648;76;21155;-72
2021/01/22 04:20:27;;;;;;;1.40;0.50;;;10.20;99.90;;;;;;1896629;76;21066;-72
2021/01/22 04:22:53;;;;;;;0.70;0.42;;;10.20;99.90;;;;;;1896649;76;21154;-72
2021/01/22 04:25:19;;;;;;;3.33;0.80;;;10.20;99.90;;;;;;1896645;76;21088;-73
2021/01/22 04:27:45;;;;;;;3.20;0.40;;;10.20;99.90;;;;;;1896510;76;21093;-73
2021/01/22 04:30:11;;;;;;;0.70;0.35;;;10.00;99.90;;;;;;1896418;76;21162;-73
2021/01/22 04:32:37;;;;;;;2.47;0.60;;;10.10;99.90;;;;;;1896448;76;21506;-72
2021/01/22 04:35:04;;;;;;;6.55;0.90;;;10.10;99.90;;;;;;1896429;76;21496;-72
2021/01/22 04:37:30;;;;;;;2.50;0.65;;;10.10;99.90;;;;;;1896464;76;21574;-72
2021/01/22 04:39:56;;;;;;;3.20;0.42;;;10.00;99.90;;;;;;1896461;76;21513;-72
2021/01/22 04:42:22;;;;;;;1.20;0.40;;;10.10;99.90;;;;;;1896491;76;21501;-73
2021/01/22 04:44:48;;;;;;;1.37;0.47;;;10.10;99.90;;;;;;1896469;76;21081;-72
2021/01/22 04:47:14;;;;;;;0.75;0.42;;;10.10;99.90;;;;;;1896442;76;21187;-73
2021/01/22 04:49:40;;;;;;;1.45;0.68;;;10.00;99.90;;;;;;1896457;76;21202;-73
2021/01/22 04:52:06;;;;;;;0.35;0.35;;;10.10;99.90;;;;;;1896452;76;21054;-73
2021/01/22 04:54:36;;;;;;;2.42;0.53;;;10.10;99.90;;;;;;1896472;76;21070;-73
2021/01/22 04:57:00;;;;;;;1.45;0.45;;;10.10;99.90;;;;;;1896022;75;21461;-74
2021/01/22 04:59:26;;;;;;;1.12;0.42;;;10.10;99.90;;;;;;1896450;76;21525;-73
2021/01/22 05:01:52;;;;;;;1.95;0.33;;;10.00;99.90;;;;;;1896445;76;21462;-72
2021/01/22 05:04:19;;;;;;;0.90;0.60;;;9.90;99.90;;;;;;1896474;76;21563;-72
2021/01/22 05:06:45;;;;;;;1.30;0.62;;;9.90;99.90;;;;;;1896461;76;21176;-73
2021/01/22 05:09:11;;;;;;;1.10;0.20;;;9.90;99.90;;;;;;1896475;76;21076;-72
2021/01/22 05:11:37;;;;;;;4.53;0.62;;;9.90;99.90;;;;;;1896502;76;21151;-73
2021/01/22 05:14:03;;;;;;;2.17;0.53;;;9.90;99.90;;;;;;1898014;76;21128;-71
2021/01/22 05:16:29;;;;;;;1.47;0.40;;;9.80;99.90;;;;;;1896844;76;21014;-73
2021/01/22 05:18:55;;;;;;;0.78;0.53;;;9.80;99.90;;;;;;1896578;76;21116;-72
2021/01/22 05:21:22;;;;;;;0.55;0.28;;;9.80;99.90;;;;;;1896591;76;21153;-73
2021/01/22 05:23:48;;;;;;;2.50;0.93;;;9.90;99.90;;;;;;1896422;76;21501;-73
2021/01/22 05:26:14;;;;;;;0.65;0.30;;;9.90;99.90;;;;;;1896405;76;21552;-72
2021/01/22 05:28:40;;;;;;;3.50;0.55;;;10.00;99.90;;;;;;1896518;76;21147;-72
2021/01/22 05:31:07;;;;;;;0.30;0.30;;;9.90;99.90;;;;;;1896318;76;21034;-73
2021/01/22 05:33:33;;;;;;;0.30;0.23;;;9.90;99.90;;;;;;1896567;76;21057;-72
2021/01/22 05:35:59;;;;;;;0.35;0.30;;;10.00;99.90;;;;;;1896366;76;21074;-72
2021/01/22 05:38:25;;;;;;;0.88;0.20;;;10.00;99.90;;;;;;1896516;76;21073;-72
2021/01/22 05:40:51;;;;;;;2.37;0.60;;;10.00;99.90;;;;;;1896447;76;21158;-72
2021/01/22 05:43:17;;;;;;;0.98;0.45;;;10.10;99.90;;;;;;1896449;76;21081;-72
2021/01/22 05:45:43;;;;;;;1.12;0.10;;;10.10;99.90;;;;;;1896337;76;21077;-72
2021/01/22 05:48:09;;;;;;;0.30;0.30;;;10.20;99.90;;;;;;1896134;76;21085;-72
2021/01/22 05:50:36;;;;;;;0.62;0.20;;;10.10;99.90;;;;;;1896367;76;21536;-72
2021/01/22 05:53:02;;;;;;;0.95;0.17;;;10.10;99.90;;;;;;1896433;76;21434;-72
2021/01/22 05:55:28;;;;;;;1.00;0.20;;;10.20;99.90;;;;;;1896457;76;21574;-72
2021/01/22 05:57:54;;;;;;;1.55;0.40;;;10.20;99.90;;;;;;1896405;76;21646;-72
2021/01/22 06:00:20;;;;;;;5.05;0.40;;;10.10;99.90;;;;;;1896422;76;21501;-72
2021/01/22 06:02:46;;;;;;;0.35;0.20;;;10.20;99.90;;;;;;1896627;76;21146;-72
2021/01/22 06:05:12;;;;;;;0.42;0.20;;;10.10;99.90;;;;;;1896369;76;21139;-72
2021/01/22 06:07:39;;;;;;;0.10;0.10;;;10.20;99.90;;;;;;1896397;76;21073;-72
2021/01/22 06:10:05;;;;;;;0.98;0.20;;;10.20;99.90;;;;;;1902205;74;21109;-72
2021/01/22 06:12:31;;;;;;;0.45;0.40;;;10.30;99.90;;;;;;1895644;75;21085;-72
2021/01/22 06:14:57;;;;;;;2.15;0.50;;;10.30;99.90;;;;;;1896262;76;21069;-72
2021/01/22 06:17:23;;;;;;;0.30;0.20;;;10.20;99.90;;;;;;1896364;76;21073;-71
2021/01/22 06:19:49;;;;;;;0.17;0.17;;;10.30;99.90;;;;;;1896439;76;21069;-72
2021/01/22 06:22:15;;;;;;;1.17;0.35;;;10.20;99.90;;;;;;1896510;76;21050;-72
2021/01/22 06:24:41;;;;;;;2.22;0.50;;;10.20;99.90;;;;;;1896519;76;21073;-72
2021/01/22 06:27:07;;;;;;;0.17;0.17;;;10.20;99.90;;;;;;1896530;76;21147;-72
2021/01/22 06:29:34;;;;;;;0.30;0.30;;;10.20;99.90;;;;;;1896464;76;21109;-71
2021/01/22 06:32:00;;;;;;;0.93;0.35;;;10.10;99.90;;;;;;1896324;76;21474;-71
2021/01/22 06:34:26;;;;;;;0.23;0.23;;;10.10;99.90;;;;;;1896315;76;21490;-71
2021/01/22 06:36:53;;;;;;;4.87;0.28;;;10.00;99.90;;;;;;1896428;76;21116;-71
2021/01/22 06:39:19;;;;;;;4.03;1.80;;;10.00;99.90;;;;;;1896333;76;21146;-71
2021/01/22 06:41:45;;;;;;;0.60;0.30;;;10.00;99.90;;;;;;1896299;76;21155;-73
2021/01/22 06:44:11;;;;;;;0.85;0.50;;;10.00;99.90;;;;;;1896406;76;21497;-71
2021/01/22 06:46:37;;;;;;;0.80;0.35;;;10.00;99.90;;;;;;1896285;76;21461;-71
2021/01/22 06:49:03;;;;;;;0.62;0.40;;;10.00;99.90;;;;;;1896222;76;21434;-72
2021/01/22 06:51:34;;;;;;;0.30;0.30;;;10.10;99.90;;;;;;1896413;76;21520;-72
2021/01/22 06:53:57;;;;;;;1.05;0.50;;;10.10;99.90;;;;;;1894927;75;21134;-71
2021/01/22 06:56:23;;;;;;;0.20;0.20;;;10.20;99.90;;;;;;1896462;76;21073;-73
2021/01/22 06:58:49;;;;;;;0.30;0.30;;;10.10;99.90;;;;;;1897694;76;21075;-72
2021/01/22 07:01:16;;;;;;;0.55;0.20;;;10.20;99.90;;;;;;1897236;76;21503;-72
2021/01/22 07:03:42;;;;;;;2.17;0.50;;;10.10;99.90;;;;;;1896423;76;21159;-71
2021/01/22 07:06:08;;;;;;;0.53;0.30;;;10.10;99.90;;;;;;1896368;76;21433;-71
2021/01/22 07:08:34;;;;;;;1.47;0.45;;;10.10;99.90;;;;;;1896310;76;21171;-72
2021/01/22 07:11:02;;;;;;;0.47;0.20;;;10.10;99.90;;;;;;1896268;76;21154;-71
2021/01/22 07:13:28;;;;;;;0.57;0.17;;;10.20;99.90;;;;;;1896325;75;21503;-71
2021/01/22 07:15:54;;;;;;;2.15;0.28;;;10.10;99.90;;;;;;1896283;76;21564;-71
2021/01/22 07:18:20;;;;;;;6.70;0.50;;;10.10;99.90;;;;;;1896463;76;21128;-71
2021/01/22 07:20:46;;;;;;;1.32;0.30;;;10.10;99.90;;;;;;1896247;76;21065;-75
2021/01/22 07:23:12;;;;;;;0.65;0.40;;;10.10;99.90;;;;;;1896426;76;21077;-74
2021/01/22 07:25:40;;;;;;;3.65;0.30;;;10.10;99.90;;;;;;1896275;76;21140;-75
2021/01/22 07:28:07;;;;;;;0.20;0.20;;;10.20;99.90;;;;;;1896470;76;21089;-74
2021/01/22 07:30:34;;;;;;;0.20;0.20;;;10.10;99.90;;;;;;1896320;76;21081;-74
2021/01/22 07:33:00;;;;;;;0.20;0.20;;;10.20;99.90;;;;;;1896412;76;21073;-75
2021/01/22 07:35:26;;;;;;;0.45;0.37;;;10.30;99.90;;;;;;1896417;76;21037;-75
2021/01/22 07:37:52;;;;;;;0.93;0.40;;;10.20;99.90;;;;;;1896346;76;21486;-75
2021/01/22 07:40:18;;;;;;;2.22;0.40;;;10.10;99.90;;;;;;1896337;76;21485;-75
2021/01/22 07:42:44;;;;;;;3.27;0.50;;;10.10;99.90;;;;;;1896303;76;21518;-74
2021/01/22 07:45:10;;;;;;;2.65;0.55;;;10.10;99.90;;;;;;1896260;76;21509;-74
2021/01/22 07:47:37;;;;;;;2.83;0.30;;;10.20;99.90;;;;;;1896253;76;21068;-73
2021/01/22 07:50:03;;;;;;;0.68;0.28;;;10.20;99.90;;;;;;1896398;76;21069;-76
2021/01/22 07:52:29;;;;;;;3.98;0.55;;;10.20;99.90;;;;;;1902872;74;21045;-76
2021/01/22 07:54:55;;;;;;;0.90;0.40;;;10.20;99.90;;;;;;1896271;76;21116;-78
2021/01/22 07:57:21;;;;;;;4.20;0.37;;;10.30;99.90;;;;;;1921807;73;21210;-81
2021/01/22 07:59:47;;;;;;;0.62;0.30;;;10.20;99.90;;;;;;1922585;74;21098;-77
2021/01/22 08:02:13;;;;;;;0.30;0.30;;;10.30;99.90;;;;;;1896359;76;21069;-76
2021/01/22 08:04:39;;;;;;;2.60;0.50;;;10.30;99.90;;;;;;1896397;76;21073;-77
2021/01/22 08:07:05;;;;;;;0.20;0.20;;;10.50;99.90;;;;;;1896409;76;21116;-76
2021/01/22 08:09:32;;;;;;;1.05;0.42;;;10.50;99.90;;;;;;1902306;74;21065;-76
2021/01/22 08:11:58;;;;;;;0.90;0.30;;;10.60;99.90;;;;;;1896478;76;21192;-74
2021/01/22 08:14:24;;;;;;;0.65;0.30;;;10.60;99.90;;;;;;1908932;74;21135;-76
2021/01/22 08:16:50;;;;;;;2.17;0.50;;;10.70;99.90;;;;;;1896309;76;21570;-76
2021/01/22 08:22:02;;;;;;;1.12;0.75;;;10.70;99.90;;;;;;1961839;73;21046;-74
2021/01/22 08:24:28;;;;;;;0.75;0.35;;;10.80;99.90;;;;;;1961688;73;21133;-74
2021/01/22 08:26:54;;;;;;;0.47;0.35;;;10.90;99.90;;;;;;1961801;73;21082;-75
2021/01/22 08:29:20;;;;;;;3.50;0.33;;;11.00;99.90;;;;;;1961795;72;21503;-74
2021/01/22 08:31:46;;;;;;;1.70;0.40;;;11.00;99.90;;;;;;1961812;73;21535;-75
2021/01/22 08:34:12;;;;;;;1.30;0.30;;;11.10;99.90;;;;;;1961700;73;21067;-75
2021/01/22 08:36:39;;;;;;;0.80;0.23;;;11.10;99.90;;;;;;1961899;73;21210;-73
2021/01/22 08:39:05;;;;;;;0.40;0.37;;;11.20;99.90;;;;;;1961930;73;21046;-72
2021/01/22 08:41:31;;;;;;;2.60;0.20;;;11.30;99.90;;;;;;1963327;73;21143;-73
2021/01/22 08:43:57;;;;;;;0.40;0.30;;;11.40;99.90;;;;;;1961884;73;21079;-71
2021/01/22 08:46:23;;;;;;;0.10;0.10;;;11.50;99.90;;;;;;1961765;73;21074;-71
2021/01/22 08:48:49;;;;;;;0.60;0.37;;;11.60;99.90;;;;;;1961775;73;21152;-74
2021/01/22 08:51:15;;;;;;;2.40;0.40;;;11.60;99.90;;;;;;1961837;73;21090;-76
2021/01/22 08:53:41;;;;;;;0.20;0.20;;;11.70;99.90;;;;;;1962087;73;21047;-75
2021/01/22 08:56:08;;;;;;;2.83;0.30;;;11.90;99.90;;;;;;1961754;73;21074;-70
2021/01/22 08:58:34;;;;;;;1.85;0.47;;;12.00;99.90;;;;;;1961914;73;21033;-72
2021/01/22 09:01:00;;;;;;;2.10;0.30;;;12.20;99.90;;;;;;1961530;73;21135;-72
2021/01/22 09:03:26;;;;;;;4.62;0.50;;;12.30;99.90;;;;;;1961727;73;21061;-73
2021/01/22 09:05:52;;;;;;;1.35;0.50;;;12.40;99.90;;;;;;1961606;73;21113;-71
2021/01/22 09:08:20;;;;;;;0.98;0.40;;;12.50;99.90;;;;;;1961900;73;21115;-72
2021/01/22 09:10:46;;;;;;;0.50;0.40;;;12.60;99.90;;;;;;1961689;73;21525;-72
2021/01/22 09:13:12;;;;;;;0.88;0.60;;;12.40;99.90;;;;;;1961891;73;21579;-72
2021/01/22 09:15:38;;;;;;;5.87;0.33;;;12.30;99.90;;;;;;1961678;73;21467;-72
2021/01/22 09:18:05;;;;;;;2.65;0.55;;;12.40;99.90;;;;;;1965724;72;21094;-72
2021/01/22 09:20:32;;;;;;;4.62;0.50;;;12.40;99.90;;;;;;1964206;72;21123;-72
2021/01/22 09:22:58;;;;;;;0.55;0.30;;;12.40;99.90;;;;;;1962910;72;21137;-72
2021/01/22 09:25:26;;;;;;;1.82;0.50;;;12.30;99.90;;;;;;1958040;73;21035;-71
2021/01/22 09:27:52;;;;;;;4.62;0.30;;;12.40;99.90;;;;;;1961916;73;21090;-71
2021/01/22 09:30:18;;;;;;;3.33;0.37;;;12.40;99.90;;;;;;1961911;73;21101;-71
2021/01/22 09:32:44;;;;;;;0.37;0.30;;;12.40;99.90;;;;;;1962009;73;21050;-71
2021/01/22 09:35:10;;;;;;;2.05;0.72;;;12.40;99.90;;;;;;1961678;73;21082;-71
2021/01/22 09:37:36;;;;;;;0.57;0.30;;;12.60;99.90;;;;;;1961731;73;21082;-71
2021/01/22 09:40:03;;;;;;;4.83;0.23;;;12.70;99.90;;;;;;1961690;73;21079;-70
2021/01/22 09:42:29;;;;;;;0.15;0.15;;;12.90;99.90;;;;;;1961789;73;21126;-71
2021/01/22 09:44:55;;;;;;;0.60;0.37;;;13.00;99.90;;;;;;1961755;73;21074;-70
2021/01/22 09:47:21;;;;;;;7.20;1.07;;;13.30;99.90;;;;;;1961795;73;21148;-70
2021/01/22 09:49:47;;;;;;;0.90;0.30;;;13.50;99.90;;;;;;1961868;73;21588;-70
2021/01/22 09:52:14;;;;;;;8.10;0.45;;;13.60;99.90;;;;;;1961873;73;21490;-70
2021/01/22 09:54:40;;;;;;;3.02;0.57;;;13.80;99.90;;;;;;1961852;72;21082;-70
2021/01/22 09:57:06;;;;;;;0.75;0.47;;;13.90;99.90;;;;;;1961936;73;21160;-70
2021/01/22 09:59:32;;;;;;;2.00;0.50;;;13.70;99.90;;;;;;1961860;73;21086;-70
2021/01/22 10:01:59;;;;;;;0.95;0.42;;;14.00;99.90;;;;;;1961772;73;21642;-70
2021/01/22 10:04:25;;;;;;;6.53;0.40;;;13.90;99.90;;;;;;1961775;73;21490;-70
2021/01/22 10:06:51;;;;;;;2.80;0.47;;;13.90;99.90;;;;;;1961826;73;21511;-70
2021/01/22 10:09:17;;;;;;;0.20;0.20;;;13.80;99.90;;;;;;1961873;73;21503;-70
2021/01/22 10:11:43;;;;;;;3.33;0.55;;;13.60;99.90;;;;;;1961732;73;21538;-71
2021/01/22 10:14:09;;;;;;;0.30;0.10;;;13.80;99.90;;;;;;1961818;73;21058;-70
2021/01/22 10:16:35;;;;;;;1.55;0.88;;;13.90;99.90;;;;;;1961840;73;21144;-70
2021/01/22 10:19:01;;;;;;;0.65;0.57;;;13.80;99.90;;;;;;1961786;73;21071;-70
2021/01/22 10:21:28;;;;;;;2.45;0.72;;;13.90;99.90;;;;;;1961810;73;21156;-70
2021/01/22 10:23:54;;;;;;;1.37;0.40;;;14.10;99.90;;;;;;1961921;73;21176;-71
2021/01/22 10:26:20;;;;;;;2.27;0.42;;;14.20;99.90;;;;;;1961695;73;21047;-71
2021/01/22 10:28:46;;;;;;;0.62;0.30;;;14.20;99.90;;;;;;1961765;73;21078;-71
2021/01/22 10:31:12;;;;;;;0.25;0.17;;;13.90;99.90;;;;;;1961791;73;21069;-70
2021/01/22 10:33:38;;;;;;;1.75;0.47;;;13.90;99.90;;;;;;1961784;73;21126;-70
2021/01/22 10:36:04;;;;;;;1.37;0.45;;;13.70;99.90;;;;;;1961741;73;21087;-71
2021/01/22 10:38:31;;;;;;;2.98;0.50;;;13.70;99.90;;;;;;1962099;73;21510;-70
2021/01/22 10:40:57;;;;;;;0.45;0.30;;;13.80;99.90;;;;;;1963547;73;21063;-71
2021/01/22 10:43:23;;;;;;;0.98;0.50;;;13.80;99.90;;;;;;1962772;73;21054;-70
2021/01/22 10:45:49;;;;;;;2.37;0.40;;;13.70;99.90;;;;;;1961781;73;21106;-71
2021/01/22 10:48:15;;;;;;;1.87;0.25;;;13.70;99.90;;;;;;1961727;73;21086;-71
2021/01/22 10:50:41;;;;;;;0.45;0.28;;;13.90;99.90;;;;;;1961898;73;21050;-71
2021/01/22 10:53:07;;;;;;;0.62;0.33;;;13.80;99.90;;;;;;1961792;73;21075;-73
2021/01/22 10:55:33;;;;;;;0.40;0.35;;;13.90;99.90;;;;;;1961786;73;21082;-72
2021/01/22 10:58:00;;;;;;;0.72;0.23;;;14.60;99.90;;;;;;1961786;73;21164;-72
2021/01/22 11:00:26;;;;;;;1.85;0.20;;;15.50;99.90;;;;;;1961725;73;21086;-72
2021/01/22 11:02:52;;;;;;;0.05;0.00;;;16.00;99.90;;;;;;1961770;73;21075;-72
2021/01/22 11:05:18;;;;;;;0.10;0.10;;;16.30;99.90;;;;;;1961773;73;21174;-73
2021/01/22 11:07:44;;;;;;;1.55;0.28;;;16.30;99.90;;;;;;1961728;73;21131;-72
2021/01/22 11:10:10;;;;;;;0.55;0.20;;;16.30;99.90;;;;;;1961772;73;21595;-72
2021/01/22 11:12:36;;;;;;;0.90;0.20;;;16.00;99.90;;;;;;1961745;73;21493;-71
2021/01/22 11:15:02;;;;;;;0.30;0.23;;;15.70;99.90;;;;;;1961719;73;21529;-71
2021/01/22 11:17:29;;;;;;;4.78;0.42;;;15.20;99.90;;;;;;1961839;73;21553;-72
2021/01/22 11:19:55;;;;;;;3.60;0.70;;;15.40;99.90;;;;;;1961727;73;21542;-71
2021/01/22 11:22:21;;;;;;;0.75;0.20;;;15.40;99.90;;;;;;1961735;73;21085;-71
2021/01/22 11:24:47;;;;;;;4.08;0.20;;;15.90;99.90;;;;;;1961700;73;21050;-73
2021/01/22 11:27:13;;;;;;;0.72;0.20;;;15.90;99.90;;;;;;1961728;73;21049;-73
2021/01/22 11:29:39;;;;;;;1.65;0.20;;;15.20;99.90;;;;;;1961797;73;21132;-72
2021/01/22 11:32:05;;;;;;;0.15;0.15;;;14.60;99.90;;;;;;1961827;73;21083;-72
2021/01/22 11:34:31;;;;;;;0.78;0.30;;;14.60;99.90;;;;;;1961858;73;21140;-72
2021/01/22 11:36:58;;;;;;;0.30;0.30;;;14.50;99.90;;;;;;1961642;73;21079;-72
2021/01/22 11:39:24;;;;;;;0.53;0.20;;;14.50;99.90;;;;;;1961982;73;21523;-73
2021/01/22 11:41:50;;;;;;;0.23;0.10;;;14.70;99.90;;;;;;1961754;73;21534;-73
2021/01/22 11:44:16;;;;;;;0.10;0.10;;;15.10;99.90;;;;;;1961969;73;21499;-74
2021/01/22 11:46:42;;;;;;;0.53;0.20;;;15.30;99.90;;;;;;1961763;73;21074;-73
2021/01/22 11:49:08;;;;;;;0.68;0.20;;;15.30;99.90;;;;;;1961978;73;21229;-73
2021/01/22 11:51:34;;;;;;;0.30;0.20;;;15.20;99.90;;;;;;1947821;73;21054;-72
2021/01/22 11:54:01;;;;;;;0.10;0.10;;;15.10;99.90;;;;;;1962000;73;21078;-73
2021/01/22 11:56:27;;;;;;;0.90;0.10;;;15.20;99.90;;;;;;1961769;72;21088;-72
2021/01/22 11:58:53;;;;;;;0.80;0.60;;;15.10;99.90;;;;;;1962025;73;21058;-75
2021/01/22 12:01:19;;;;;;;0.50;0.30;;;14.80;99.90;;;;;;1961747;73;21160;-72
2021/01/22 12:03:46;;;;;;;0.25;0.25;;;14.90;99.90;;;;;;1973349;72;21178;-72
2021/01/22 12:06:12;;;;;;;0.30;0.30;;;14.90;99.90;;;;;;1976785;72;21519;-74
2021/01/22 12:08:38;;;;;;;0.42;0.10;;;14.80;99.90;;;;;;1961989;73;21474;-72
2021/01/22 12:11:04;;;;;;;0.13;0.13;;;14.80;99.90;;;;;;1961915;73;21525;-72
2021/01/22 12:13:30;;;;;;;1.32;0.20;;;14.70;99.90;;;;;;1961723;73;21502;-73
2021/01/22 12:15:56;;;;;;;0.20;0.20;;;14.90;99.90;;;;;;1961706;73;21561;-74
2021/01/22 12:18:22;;;;;;;0.30;0.30;;;15.30;99.90;;;;;;1961921;73;21501;-75
2021/01/22 12:20:49;;;;;;;1.37;0.30;;;15.60;99.90;;;;;;1961684;73;21070;-74
2021/01/22 12:23:15;;;;;;;1.00;0.20;;;16.00;99.90;;;;;;1961648;73;21090;-74
2021/01/22 12:25:45;;;;;;;1.47;0.82;;;16.00;99.90;;;;;;1961834;73;21152;-75
2021/01/22 12:28:09;;;;;;;0.75;0.37;;;15.80;99.90;;;;;;1961494;73;21130;-74
2021/01/22 12:30:35;;;;;;;0.50;0.30;;;15.70;99.90;;;;;;1961804;73;21152;-73
2021/01/22 12:33:01;;;;;;;0.10;0.10;;;15.40;99.90;;;;;;1961828;73;21082;-73
2021/01/22 12:35:27;;;;;;;0.17;0.10;;;15.40;99.90;;;;;;1961867;73;21076;-74
2021/01/22 12:37:54;;;;;;;0.42;0.13;;;15.40;99.90;;;;;;1961843;73;21023;-73
2021/01/22 12:40:20;;;;;;;0.53;0.10;;;15.30;99.90;;;;;;1961871;73;21098;-73
2021/01/22 12:42:46;;;;;;;0.28;0.28;;;15.10;99.90;;;;;;1961850;73;21534;-73
2021/01/22 12:45:12;;;;;;;0.30;0.23;;;15.30;99.90;;;;;;1961957;73;21082;-72